Terminal Aerodrome Forecast
Issued by NWS

Home | Current Version | Previous Version | Text Only | Print | Product List | Glossary On
Versions: 1 2 3 4 5 6 7 8 9 10 11 12 13 14 15 16 17 18 19 20 21 22 23 24 25 26 27
000
FTUS41 KPBZ 240527
TAFBVI
TAF
KBVI 240527Z 2406/2506 32006KT P6SM OVC020
     FM241000 35004KT P6SM OVC008
     FM241300 02003KT 5SM -SHRA BR OVC008
     FM241600 03005KT 3SM +SHRA OVC008
     FM241900 05007KT 3SM SHRA OVC015
     FM250200 12007KT 1SM SHRA BR OVC003
      AMD NOT SKED=

USA.gov is the U.S. government's official web portal to all federal, state and local government web resources and services.